Terminal Aerodrome Forecast
Issued by NWS

Home | Current Version | Previous Version | Text Only | Print | Product List | Glossary On
Versions: 1 2 3 4 5 6 7 8 9 10 11 12 13 14 15
352
FTUS42 KMLB 301628 AAA
TAFSUA
TAF AMD
KSUA 301628Z 3016/0112 17005KT P6SM SCT020 BKN030
     FM301700 12008KT P6SM VCTS SCT030CB SCT050 SCT250
      TEMPO 3021/3023 3SM TSRA BKN035CB
     FM010000 15006KT P6SM VCSH BKN040 BKN250=

USA.gov is the U.S. government's official web portal to all federal, state and local government web resources and services.